createdAt,value
2022-08-11T00:02:28.776Z,2.20
2022-08-11T00:05:03.201Z,2.47
2022-08-11T00:07:32.293Z,2.15
2022-08-11T00:10:01.606Z,2.20
2022-08-11T00:12:30.728Z,2.55
2022-08-11T00:15:01.540Z,2.28
2022-08-11T00:17:32.511Z,2.25
2022-08-11T00:20:16.204Z,2.03
2022-08-11T00:22:47.459Z,2.30
2022-08-11T00:25:17.800Z,2.20
2022-08-11T00:27:47.279Z,2.25
2022-08-11T00:30:17.253Z,1.95
2022-08-11T00:32:55.200Z,2.70
2022-08-11T00:35:55.701Z,2.67
2022-08-11T00:38:24.387Z,2.70
2022-08-11T00:41:00.626Z,2.35
2022-08-11T00:43:50.582Z,2.55
2022-08-11T00:46:31.261Z,2.20
2022-08-11T00:49:09.584Z,2.15
2022-08-11T00:52:05.079Z,2.40
2022-08-11T00:55:04.336Z,2.28
2022-08-11T00:58:15.084Z,2.20
2022-08-11T01:01:29.696Z,1.88
2022-08-11T01:04:40.790Z,2.03
2022-08-11T01:08:01.397Z,2.30
2022-08-11T01:10:52.719Z,2.25
2022-08-11T01:13:47.907Z,2.25
2022-08-11T01:16:47.829Z,2.10
2022-08-11T01:20:39.736Z,2.28
2022-08-11T01:23:24.419Z,2.25
2022-08-11T01:26:26.616Z,2.50
2022-08-11T01:29:33.714Z,2.60
2022-08-11T01:32:44.909Z,2.35
2022-08-11T01:35:45.158Z,2.20
2022-08-11T01:38:39.155Z,2.20
2022-08-11T01:42:00.291Z,2.40
2022-08-11T01:45:00.463Z,2.15
2022-08-11T01:47:54.588Z,2.25
2022-08-11T01:50:38.348Z,2.35
2022-08-11T01:53:17.067Z,2.75
2022-08-11T01:55:57.874Z,2.05
2022-08-11T01:58:43.549Z,2.28
2022-08-11T02:01:28.680Z,2.50
2022-08-11T02:04:05.060Z,2.30
2022-08-11T02:06:58.312Z,2.10
2022-08-11T02:09:42.092Z,2.15
2022-08-11T02:12:48.246Z,2.22
2022-08-11T02:15:28.869Z,2.22
2022-08-11T02:18:06.277Z,2.38
2022-08-11T02:21:00.833Z,2.33
2022-08-11T02:24:04.161Z,2.55
2022-08-11T02:26:37.218Z,2.22
2022-08-11T02:29:14.933Z,2.67
2022-08-11T02:32:25.283Z,2.03
2022-08-11T02:35:03.020Z,2.30
2022-08-11T02:37:45.101Z,2.08
2022-08-11T02:40:25.870Z,2.40
2022-08-11T02:43:20.668Z,2.25
2022-08-11T02:46:04.889Z,2.28
2022-08-11T02:48:58.703Z,2.40
2022-08-11T02:51:36.219Z,2.20
2022-08-11T02:54:12.750Z,2.33
2022-08-11T02:56:52.282Z,2.10
2022-08-11T02:59:49.646Z,2.55
2022-08-11T03:02:31.373Z,2.20
2022-08-11T03:05:09.114Z,2.15
2022-08-11T03:07:49.302Z,2.33
2022-08-11T03:10:23.643Z,2.40
2022-08-11T03:13:17.653Z,2.20
2022-08-11T03:16:11.037Z,2.20
2022-08-11T03:18:46.540Z,2.30
2022-08-11T03:21:22.108Z,2.50
2022-08-11T03:24:01.511Z,3.20
2022-08-11T03:26:34.549Z,2.33
2022-08-11T03:29:09.285Z,2.20
2022-08-11T03:31:46.045Z,2.08
2022-08-11T03:34:18.354Z,2.13
2022-08-11T03:37:17.785Z,2.20
2022-08-11T03:40:04.517Z,2.58
2022-08-11T03:42:43.778Z,2.17
2022-08-11T03:45:29.515Z,2.20
2022-08-11T03:48:15.917Z,2.17
2022-08-11T03:51:04.609Z,2.80
2022-08-11T03:54:04.658Z,2.20
2022-08-11T03:57:09.135Z,2.50
2022-08-11T04:00:12.448Z,2.40
2022-08-11T04:03:17.401Z,2.25
2022-08-11T04:06:31.472Z,2.50
2022-08-11T04:09:46.351Z,3.30
2022-08-11T04:12:37.111Z,4.38
2022-08-11T04:15:44.583Z,5.18
2022-08-11T04:18:51.631Z,5.40
2022-08-11T04:21:43.040Z,6.25
2022-08-11T04:24:39.612Z,6.13
2022-08-11T04:27:39.320Z,5.90
2022-08-11T04:30:13.205Z,6.22
2022-08-11T04:33:08.211Z,6.80
2022-08-11T04:35:50.909Z,6.35
2022-08-11T04:38:54.747Z,6.32
2022-08-11T04:42:10.837Z,6.28
2022-08-11T04:45:33.721Z,5.95
2022-08-11T04:48:37.724Z,5.65
2022-08-11T04:51:49.104Z,5.82
2022-08-11T04:54:50.597Z,4.50
2022-08-11T04:57:41.319Z,4.93
2022-08-11T05:00:29.244Z,4.40
2022-08-11T05:03:47.065Z,4.18
2022-08-11T05:06:49.649Z,3.65
2022-08-11T05:09:35.612Z,3.72
2022-08-11T05:12:31.061Z,3.90
2022-08-11T05:15:18.471Z,3.38
2022-08-11T05:18:14.283Z,3.67
2022-08-11T05:21:06.157Z,3.30
2022-08-11T05:23:54.198Z,3.50
2022-08-11T05:26:46.219Z,3.33
2022-08-11T05:29:47.325Z,3.30
2022-08-11T05:32:36.297Z,3.22
2022-08-11T05:35:08.538Z,3.15
2022-08-11T05:37:58.067Z,3.38
2022-08-11T05:40:52.952Z,3.45
2022-08-11T05:44:20.839Z,3.03
2022-08-11T05:46:48.626Z,2.70
2022-08-11T05:49:34.537Z,2.80
2022-08-11T05:52:28.081Z,2.92
2022-08-11T05:55:29.677Z,2.60
2022-08-11T05:58:00.452Z,2.70
2022-08-11T06:00:31.266Z,2.83
2022-08-11T06:03:07.346Z,3.38
2022-08-11T06:05:38.539Z,2.95
2022-08-11T06:08:13.283Z,2.88
2022-08-11T06:10:43.713Z,2.53
2022-08-11T06:13:16.342Z,3.10
2022-08-11T06:15:50.838Z,2.50
2022-08-11T06:18:20.146Z,2.55
2022-08-11T06:20:50.114Z,2.97
2022-08-11T06:23:20.409Z,2.67
2022-08-11T06:25:49.426Z,2.47
2022-08-11T06:28:21.002Z,2.38
2022-08-11T06:30:51.654Z,2.53
2022-08-11T06:33:32.225Z,2.53
2022-08-11T06:36:05.619Z,2.70
2022-08-11T06:38:53.928Z,2.60
2022-08-11T06:41:32.224Z,2.63
2022-08-11T06:44:16.819Z,2.63
2022-08-11T06:46:50.767Z,2.50
2022-08-11T06:49:39.383Z,2.63
2022-08-11T06:52:34.893Z,2.22
2022-08-11T06:55:57.068Z,2.42
2022-08-11T06:58:18.353Z,3.03
2022-08-11T07:00:49.183Z,2.58
2022-08-11T07:03:20.669Z,2.30
2022-08-11T07:05:53.057Z,2.22
2022-08-11T07:09:17.140Z,2.10
2022-08-11T07:12:34.441Z,2.35
2022-08-11T07:15:24.681Z,2.50
2022-08-11T07:18:35.232Z,2.08
2022-08-11T07:22:00.320Z,2.40
2022-08-11T07:25:02.644Z,2.55
2022-08-11T07:27:55.800Z,2.25
2022-08-11T07:30:26.644Z,2.40
2022-08-11T07:32:57.404Z,2.40
2022-08-11T07:35:31.392Z,2.40
2022-08-11T07:38:07.317Z,2.17
2022-08-11T07:40:36.841Z,2.10
2022-08-11T07:43:06.940Z,2.10
2022-08-11T07:45:53.693Z,2.28
2022-08-11T07:48:40.079Z,2.22
2022-08-11T07:51:26.073Z,2.60
2022-08-11T07:54:03.095Z,2.22
2022-08-11T07:56:55.605Z,2.40
2022-08-11T08:00:03.394Z,2.17
2022-08-11T08:02:59.207Z,2.40
2022-08-11T08:05:45.001Z,2.00
2022-08-11T08:08:34.203Z,2.15
2022-08-11T08:11:27.101Z,2.22
2022-08-11T08:14:14.271Z,2.33
2022-08-11T08:17:01.116Z,2.70
2022-08-11T08:19:30.382Z,2.00
2022-08-11T08:22:04.330Z,2.60
2022-08-11T08:24:41.844Z,2.20
2022-08-11T08:27:13.820Z,2.30
2022-08-11T08:30:01.018Z,2.40
2022-08-11T08:32:31.878Z,2.13
2022-08-11T08:35:02.894Z,2.40
2022-08-11T08:37:45.777Z,2.08
2022-08-11T08:40:16.481Z,2.28
2022-08-11T08:42:55.007Z,2.40
2022-08-11T08:45:24.702Z,2.05
2022-08-11T08:48:02.407Z,2.22
2022-08-11T08:50:54.478Z,2.00
2022-08-11T08:53:29.082Z,2.28
2022-08-11T08:55:58.946Z,2.17
2022-08-11T08:58:29.416Z,1.92
2022-08-11T09:01:00.872Z,2.15
2022-08-11T09:04:02.782Z,1.83
2022-08-11T09:06:18.443Z,1.95
2022-08-11T09:08:49.634Z,2.17
2022-08-11T09:11:42.677Z,1.90
2022-08-11T09:14:15.052Z,1.90
2022-08-11T09:16:44.828Z,1.70
2022-08-11T09:19:17.472Z,2.08
2022-08-11T09:22:11.323Z,2.03
2022-08-11T09:24:58.459Z,1.73
2022-08-11T09:27:27.732Z,2.00
2022-08-11T09:30:01.789Z,2.00
2022-08-11T09:32:33.131Z,1.63
2022-08-11T09:35:04.642Z,1.77
2022-08-11T09:37:54.607Z,1.98
2022-08-11T09:40:35.459Z,1.75
2022-08-11T09:43:28.867Z,1.60
2022-08-11T09:46:00.643Z,1.55
2022-08-11T09:48:33.359Z,1.70
2022-08-11T09:51:03.085Z,1.60
2022-08-11T09:53:35.112Z,1.85
2022-08-11T09:56:22.303Z,1.80
2022-08-11T09:58:51.134Z,1.80
2022-08-11T10:01:30.131Z,2.13
2022-08-11T10:04:01.759Z,2.17
2022-08-11T10:06:54.163Z,2.03
2022-08-11T10:09:25.621Z,2.08
2022-08-11T10:11:58.699Z,2.05
2022-08-11T10:14:47.141Z,1.75
2022-08-11T10:17:21.510Z,1.88
2022-08-11T10:20:04.178Z,1.80
2022-08-11T10:22:53.144Z,1.83
2022-08-11T10:25:40.324Z,1.70
2022-08-11T10:28:28.840Z,1.52
2022-08-11T10:31:31.273Z,1.70
2022-08-11T10:34:54.505Z,1.65
2022-08-11T10:38:08.557Z,1.92
2022-08-11T10:40:19.150Z,1.50
2022-08-11T10:43:07.547Z,1.80
2022-08-11T10:45:55.197Z,1.90
2022-08-11T10:48:26.331Z,1.70
2022-08-11T10:51:15.179Z,1.70
2022-08-11T10:54:03.550Z,1.60
2022-08-11T10:56:53.687Z,1.80
2022-08-11T10:59:23.078Z,1.90
2022-08-11T11:01:53.510Z,1.90
2022-08-11T11:04:29.432Z,1.95
2022-08-11T11:07:06.776Z,2.08
2022-08-11T11:09:45.394Z,2.00
2022-08-11T11:12:36.833Z,1.95
2022-08-11T11:15:25.207Z,2.42
2022-08-11T11:17:57.491Z,1.92
2022-08-11T11:20:38.754Z,2.20
2022-08-11T11:23:18.292Z,1.95
2022-08-11T11:26:28.917Z,2.20
2022-08-11T11:29:35.651Z,2.20
2022-08-11T11:32:25.697Z,2.15
2022-08-11T11:35:31.277Z,2.00
2022-08-11T11:38:05.040Z,2.10
2022-08-11T11:40:37.404Z,2.33
2022-08-11T11:43:06.796Z,2.22
2022-08-11T11:45:39.984Z,2.05
2022-08-11T11:48:09.106Z,2.20
2022-08-11T11:50:38.734Z,2.20
2022-08-11T11:53:08.986Z,2.10
2022-08-11T11:55:38.908Z,2.00
2022-08-11T11:58:31.637Z,2.03
2022-08-11T12:01:20.151Z,1.90
2022-08-11T12:03:54.611Z,2.38
2022-08-11T12:06:25.218Z,2.28
2022-08-11T12:08:56.106Z,2.22
2022-08-11T12:11:51.633Z,2.25
2022-08-11T12:14:22.404Z,2.13
2022-08-11T12:16:51.064Z,2.05
2022-08-11T12:19:23.812Z,2.10
2022-08-11T12:22:11.332Z,2.30
2022-08-11T12:24:57.758Z,2.40
2022-08-11T12:27:29.143Z,2.08
2022-08-11T12:30:00.461Z,2.20
2022-08-11T12:32:31.827Z,2.00
2022-08-11T12:35:01.393Z,1.80
2022-08-11T12:37:33.450Z,2.00
2022-08-11T12:40:43.732Z,2.15
2022-08-11T12:43:38.145Z,2.00
2022-08-11T12:46:10.372Z,2.35
2022-08-11T12:49:03.302Z,2.13
2022-08-11T12:52:11.847Z,1.95
2022-08-11T12:54:47.046Z,2.20
2022-08-11T12:57:36.390Z,2.00
2022-08-11T13:00:28.746Z,2.00
2022-08-11T13:03:24.997Z,2.10
2022-08-11T13:05:56.572Z,2.13
2022-08-11T13:08:27.815Z,2.00
2022-08-11T13:11:16.648Z,1.92
2022-08-11T13:13:54.066Z,2.05
2022-08-11T13:16:30.048Z,1.70
2022-08-11T13:19:01.229Z,2.00
2022-08-11T13:21:30.556Z,1.92
2022-08-11T13:24:02.260Z,1.83
2022-08-11T13:26:43.690Z,1.90
2022-08-11T13:29:20.334Z,2.10
2022-08-11T13:31:52.636Z,2.15
2022-08-11T13:34:22.551Z,2.05
2022-08-11T13:36:53.131Z,2.00
2022-08-11T13:39:24.054Z,2.40
2022-08-11T13:41:55.085Z,2.22
2022-08-11T13:44:29.094Z,2.05
2022-08-11T13:47:01.229Z,2.28
2022-08-11T13:49:31.809Z,1.90
2022-08-11T13:52:00.799Z,1.73
2022-08-11T13:54:32.556Z,1.73
2022-08-11T13:57:08.143Z,2.00
2022-08-11T13:59:51.990Z,2.10
2022-08-11T14:02:30.205Z,1.70
2022-08-11T14:05:03.795Z,2.08
2022-08-11T14:07:36.546Z,1.85
2022-08-11T14:10:07.807Z,1.60
2022-08-11T14:12:55.957Z,1.80
2022-08-11T14:15:26.514Z,1.65
2022-08-11T14:18:01.555Z,2.20
2022-08-11T14:20:54.894Z,1.73
2022-08-11T14:23:28.565Z,1.80
2022-08-11T14:26:15.301Z,2.00
2022-08-11T14:28:45.396Z,1.85
2022-08-11T14:31:15.839Z,1.73
2022-08-11T14:33:59.833Z,1.77
2022-08-11T14:36:34.958Z,1.60
2022-08-11T14:39:06.805Z,1.60
2022-08-11T14:42:07.544Z,1.90
2022-08-11T14:45:16.677Z,2.00
2022-08-11T14:47:48.660Z,1.60
2022-08-11T14:50:23.209Z,1.40
2022-08-11T14:52:54.980Z,1.63
2022-08-11T14:55:45.111Z,1.70
2022-08-11T14:58:16.952Z,1.70
2022-08-11T15:00:46.529Z,1.70
2022-08-11T15:03:15.340Z,1.65
2022-08-11T15:05:56.736Z,1.88
2022-08-11T15:08:42.689Z,1.50
2022-08-11T15:11:26.866Z,1.75
2022-08-11T15:13:57.863Z,1.58
2022-08-11T15:16:44.983Z,1.60
2022-08-11T15:19:16.842Z,1.98
2022-08-11T15:22:04.384Z,1.65
2022-08-11T15:24:33.596Z,1.80
2022-08-11T15:27:22.311Z,1.60
2022-08-11T15:30:10.635Z,1.80
2022-08-11T15:33:09.129Z,1.50
2022-08-11T15:35:58.728Z,1.83
2022-08-11T15:38:36.125Z,1.67
2022-08-11T15:41:23.880Z,1.52
2022-08-11T15:44:13.202Z,1.60
2022-08-11T15:46:45.837Z,1.70
2022-08-11T15:49:21.843Z,1.70
2022-08-11T15:52:00.425Z,1.90
2022-08-11T15:54:34.682Z,1.77
2022-08-11T15:57:05.595Z,1.80
2022-08-11T15:59:53.703Z,1.70
2022-08-11T16:02:43.733Z,1.70
2022-08-11T16:05:45.305Z,1.83
2022-08-11T16:08:14.481Z,1.60
2022-08-11T16:10:45.652Z,1.90
2022-08-11T16:13:35.509Z,1.70
2022-08-11T16:16:18.700Z,1.70
2022-08-11T16:18:52.479Z,1.90
2022-08-11T16:21:35.049Z,2.25
2022-08-11T16:26:30.573Z,1.77
2022-08-11T16:27:12.914Z,2.40
2022-08-11T16:29:45.430Z,1.90
2022-08-11T16:32:22.170Z,1.90
2022-08-11T16:35:13.485Z,2.00
2022-08-11T16:37:59.951Z,1.80
2022-08-11T16:40:29.482Z,2.08
2022-08-11T16:43:28.475Z,1.60
2022-08-11T16:46:14.574Z,2.08
2022-08-11T16:48:45.043Z,1.90
2022-08-11T16:51:14.629Z,1.88
2022-08-11T16:54:04.339Z,1.90
2022-08-11T16:56:38.460Z,1.75
2022-08-11T16:59:17.475Z,1.75
2022-08-11T17:01:54.499Z,1.85
2022-08-11T17:05:01.119Z,1.65
2022-08-11T17:07:49.091Z,1.92
2022-08-11T17:10:50.570Z,2.00
2022-08-11T17:13:30.042Z,1.70
2022-08-11T17:16:11.592Z,1.63
2022-08-11T17:18:45.765Z,2.13
2022-08-11T17:21:21.209Z,1.65
2022-08-11T17:23:54.821Z,2.10
2022-08-11T17:26:51.537Z,1.85
2022-08-11T17:29:25.639Z,1.38
2022-08-11T17:32:14.120Z,1.95
2022-08-11T17:35:03.316Z,1.70
2022-08-11T17:37:33.456Z,1.95
2022-08-11T17:40:04.525Z,2.38
2022-08-11T17:42:51.519Z,1.90
2022-08-11T17:45:38.455Z,2.00
2022-08-11T17:48:28.790Z,1.55
2022-08-11T17:51:05.086Z,2.30
2022-08-11T17:54:46.281Z,1.90
2022-08-11T17:57:37.507Z,1.83
2022-08-11T18:00:08.133Z,1.80
2022-08-11T18:03:02.456Z,1.90
2022-08-11T18:05:33.642Z,1.83
2022-08-11T18:08:30.070Z,1.90
2022-08-11T18:12:07.043Z,1.90
2022-08-11T18:14:28.826Z,1.90
2022-08-11T18:17:15.409Z,2.00
2022-08-11T18:20:00.946Z,1.60
2022-08-11T18:22:53.548Z,1.80
2022-08-11T18:25:46.134Z,1.80
2022-08-11T18:28:36.296Z,1.80
2022-08-11T18:31:25.713Z,1.98
2022-08-11T18:34:18.456Z,3.30
2022-08-11T18:37:09.710Z,3.10
2022-08-11T18:40:11.030Z,2.40
2022-08-11T18:42:59.488Z,2.60
2022-08-11T18:45:46.598Z,3.22
2022-08-11T18:51:36.855Z,2.30
2022-08-11T18:54:28.122Z,4.00
2022-08-11T18:57:16.118Z,2.50
2022-08-11T19:00:03.578Z,2.08
2022-08-11T19:02:54.078Z,1.95
2022-08-11T19:06:35.498Z,1.95
2022-08-11T19:08:50.822Z,1.98
2022-08-11T19:11:42.396Z,2.10
2022-08-11T19:14:31.414Z,2.20
2022-08-11T19:17:43.675Z,2.45
2022-08-11T19:20:31.491Z,3.25
2022-08-11T19:23:18.929Z,2.78
2022-08-11T19:26:07.168Z,2.85
2022-08-11T19:28:55.107Z,2.60
2022-08-11T19:31:44.835Z,2.60
2022-08-11T19:34:34.231Z,2.80
2022-08-11T19:37:25.581Z,3.30
2022-08-11T19:40:25.275Z,3.83
2022-08-11T19:43:18.774Z,3.75
2022-08-11T19:46:15.285Z,4.07
2022-08-11T19:49:03.432Z,2.78
2022-08-11T19:51:53.340Z,3.50
2022-08-11T19:54:44.224Z,2.63
2022-08-11T19:57:33.569Z,2.72
2022-08-11T20:00:24.715Z,2.90
2022-08-11T20:03:16.623Z,2.67
2022-08-11T20:06:05.610Z,3.00
2022-08-11T20:08:57.791Z,3.03
2022-08-11T20:11:53.753Z,3.22
2022-08-11T20:14:40.766Z,2.50
2022-08-11T20:17:29.649Z,2.58
2022-08-11T20:20:20.199Z,2.25
2022-08-11T20:23:08.177Z,2.05
2022-08-11T20:26:03.420Z,1.88
2022-08-11T20:28:58.456Z,2.13
2022-08-11T20:31:51.718Z,2.00
2022-08-11T20:34:38.326Z,2.00
2022-08-11T20:37:29.664Z,2.05
2022-08-11T20:40:16.802Z,2.92
2022-08-11T20:44:05.016Z,2.83
2022-08-11T20:46:19.385Z,2.78
2022-08-11T20:49:07.005Z,2.72
2022-08-11T20:51:54.445Z,3.08
2022-08-11T20:54:45.560Z,2.78
2022-08-11T20:57:36.400Z,2.60
2022-08-11T21:00:45.161Z,2.15
2022-08-11T21:03:36.205Z,2.50
2022-08-11T21:06:32.973Z,2.35
2022-08-11T21:09:58.831Z,2.42
2022-08-11T21:15:47.037Z,2.38
2022-08-11T21:18:36.795Z,2.40
2022-08-11T21:21:26.025Z,2.15
2022-08-11T21:24:15.723Z,2.33
2022-08-11T21:27:05.200Z,2.22
2022-08-11T21:29:53.870Z,2.15
2022-08-11T21:32:40.884Z,2.60
2022-08-11T21:35:30.073Z,2.10
2022-08-11T21:38:17.972Z,2.30
2022-08-11T21:41:05.480Z,3.25
2022-08-11T21:43:52.100Z,2.70
2022-08-11T21:46:41.226Z,2.30
2022-08-11T21:49:30.427Z,2.13
2022-08-11T21:52:17.313Z,2.40
2022-08-11T21:55:03.280Z,2.30
2022-08-11T21:57:50.114Z,2.55
2022-08-11T22:00:36.742Z,2.60
2022-08-11T22:03:23.400Z,2.60
2022-08-11T22:06:09.932Z,2.20
2022-08-11T22:08:57.004Z,2.08
2022-08-11T22:11:43.284Z,2.60
2022-08-11T22:14:29.488Z,2.42
2022-08-11T22:17:15.002Z,2.20
2022-08-11T22:20:01.548Z,2.35
2022-08-11T22:22:53.278Z,2.47
2022-08-11T22:25:51.015Z,2.30
2022-08-11T22:28:39.823Z,2.10
2022-08-11T22:31:26.807Z,2.30
2022-08-11T22:34:12.777Z,2.40
2022-08-11T22:37:00.321Z,2.30
2022-08-11T22:39:59.986Z,2.10
2022-08-11T22:42:50.659Z,2.33
2022-08-11T22:45:36.588Z,2.40
2022-08-11T22:48:25.018Z,2.13
2022-08-11T22:51:12.449Z,2.08
2022-08-11T22:53:59.411Z,2.00
2022-08-11T22:56:46.655Z,2.30
2022-08-11T22:59:35.685Z,2.13
2022-08-11T23:02:23.167Z,2.13
2022-08-11T23:05:10.008Z,2.10
2022-08-11T23:07:56.817Z,2.35
2022-08-11T23:10:43.090Z,2.22
2022-08-11T23:13:30.036Z,2.13
2022-08-11T23:16:18.470Z,1.90
2022-08-11T23:19:05.396Z,2.20
2022-08-11T23:21:52.148Z,2.45
2022-08-11T23:24:39.195Z,2.03
2022-08-11T23:27:27.492Z,2.17
2022-08-11T23:30:17.202Z,2.20
2022-08-11T23:33:10.510Z,2.38
2022-08-11T23:36:04.564Z,2.10
2022-08-11T23:38:52.155Z,2.30
2022-08-11T23:41:38.476Z,2.20
2022-08-11T23:44:25.438Z,3.00
2022-08-11T23:47:14.437Z,2.30
2022-08-11T23:50:02.886Z,2.28
2022-08-11T23:52:52.121Z,2.38
2022-08-11T23:55:38.607Z,2.20
2022-08-11T23:58:25.147Z,2.30
